Dodson, Louisiana
Current Conditions -  °F | °C
As of 10:55 AM on Friday 24 Oct 2014 (Local Time) from KRSN Reporting Station
Clear Clear  
Wind Chill: 62°   Ceiling: Unl
Heat Index: 62°   Visibility: 7mi
Dew Point: 52°   Wind: 3mph
Humidity: 70%   Direction: 340°NNW
Pressure: 30.23"   Gusts: NA
Location:  32.08°N, 92.66°W
Report Text: KRSN 241555Z AUTO 34003KT 7SM CLR 17/11 A3023 RMK AO2 T01650111
Loading
Personal Weather Stations






























Interactive Weather Map
Tropical Storm Tracking
New forecast layout! Learn more

10-Day Weather Forecast

Advertisements
Track Severe Weather on mobile